Time;durP1;ratioP1;P1;durP2;ratioP2;P2;SDS_P1;SDS_P2;PMS_P1;PMS_P2;Temp;Humidity;BMP_temperature;BMP_pressure;BME280_temperature;BME280_humidity;BME280_pressure;Samples;Min_cycle;Max_cycle;Signal;HPM_P1;HPM_P2
2021/12/27 00:00:43;;;;;;;24.10;17.83;;;;;;;;;;2073839;28;20189;-61
2021/12/27 00:01:44;;;;;;;26.77;19.37;;;;;;;;;;2073473;28;20183;-61
2021/12/27 00:02:45;;;;;;;32.20;22.47;;;;;;;;;;2074138;28;20275;-59
2021/12/27 00:03:49;;;;;;;26.43;19.90;;;;;;;;;;2073872;28;20671;-63
2021/12/27 00:04:49;;;;;;;26.07;19.60;;;;;;;;;;2073968;28;20414;-62
2021/12/27 00:05:49;;;;;;;26.23;18.87;;;;;;;;;;2065042;28;20213;-61
2021/12/27 00:06:50;;;;;;;27.63;18.83;;;;;;;;;;2065418;28;20684;-60
2021/12/27 00:07:51;;;;;;;22.30;18.43;;;;;;;;;;2079752;28;20184;-61
2021/12/27 00:08:51;;;;;;;22.30;18.17;;;;;;;;;;2067965;28;20197;-61
2021/12/27 00:09:52;;;;;;;24.50;18.87;;;;;;;;;;2065897;28;20166;-61
2021/12/27 00:10:52;;;;;;;25.97;19.17;;;;;;;;;;2079410;28;20603;-62
2021/12/27 00:11:52;;;;;;;25.33;18.23;;;;;;;;;;2079041;28;20780;-62
2021/12/27 00:12:53;;;;;;;25.97;18.10;;;;;;;;;;2074013;28;20173;-61
2021/12/27 00:13:53;;;;;;;25.77;19.00;;;;;;;;;;2074319;28;20568;-60
2021/12/27 00:14:54;;;;;;;27.67;18.83;;;;;;;;;;2074372;28;20165;-55
2021/12/27 00:15:54;;;;;;;24.60;18.87;;;;;;;;;;2075751;28;20199;-62
2021/12/27 00:16:54;;;;;;;25.77;18.73;;;;;;;;;;2073832;28;20176;-60
2021/12/27 00:17:54;;;;;;;26.43;19.13;;;;;;;;;;2076379;28;20256;-61
2021/12/27 00:18:55;;;;;;;27.10;19.70;;;;;;;;;;2074132;28;20176;-62
2021/12/27 00:19:56;;;;;;;25.50;18.90;;;;;;;;;;2074628;28;20169;-57
2021/12/27 00:20:56;;;;;;;26.00;19.57;;;;;;;;;;2074027;28;20181;-60
2021/12/27 00:21:56;;;;;;;27.10;18.67;;;;;;;;;;2074254;28;20190;-57
2021/12/27 00:22:57;;;;;;;26.77;18.63;;;;;;;;;;2065374;28;20263;-60
2021/12/27 00:23:57;;;;;;;26.30;19.87;;;;;;;;;;2065223;28;20585;-58
2021/12/27 00:24:57;;;;;;;23.93;17.50;;;;;;;;;;2073843;28;20216;-58
2021/12/27 00:25:57;;;;;;;28.80;19.53;;;;;;;;;;2073852;28;20221;-62
2021/12/27 00:26:58;;;;;;;26.60;19.80;;;;;;;;;;2077197;28;20243;-60
2021/12/27 00:27:58;;;;;;;26.70;20.70;;;;;;;;;;2078262;28;20188;-61
2021/12/27 00:28:58;;;;;;;32.17;23.20;;;;;;;;;;2069757;28;20201;-60
2021/12/27 00:29:58;;;;;;;28.40;21.67;;;;;;;;;;2067202;28;20181;-61
2021/12/27 00:30:59;;;;;;;30.80;22.50;;;;;;;;;;2077650;28;20220;-63
2021/12/27 00:31:59;;;;;;;28.07;20.47;;;;;;;;;;2075305;28;20185;-59
2021/12/27 00:33:00;;;;;;;28.47;20.93;;;;;;;;;;2071940;28;20185;-59
2021/12/27 00:34:00;;;;;;;26.23;19.07;;;;;;;;;;2067005;28;20252;-59
2021/12/27 00:35:00;;;;;;;25.00;18.83;;;;;;;;;;2074234;28;20173;-61
2021/12/27 00:36:00;;;;;;;25.80;19.20;;;;;;;;;;2074635;28;20209;-60
2021/12/27 00:37:01;;;;;;;27.67;19.40;;;;;;;;;;2075055;28;20180;-58
2021/12/27 00:38:01;;;;;;;25.67;19.47;;;;;;;;;;2073856;28;20181;-59
2021/12/27 00:39:02;;;;;;;24.83;19.40;;;;;;;;;;2074089;28;20177;-62
2021/12/27 00:40:06;;;;;;;26.37;20.73;;;;;;;;;;2074387;28;20267;-63
2021/12/27 00:41:07;;;;;;;27.57;19.67;;;;;;;;;;2073786;28;20197;-63
2021/12/27 00:42:07;;;;;;;25.73;19.70;;;;;;;;;;2073160;28;20173;-63
2021/12/27 00:43:08;;;;;;;26.87;19.20;;;;;;;;;;2082432;28;20187;-61
2021/12/27 00:44:08;;;;;;;26.33;20.03;;;;;;;;;;2074181;28;20267;-59
2021/12/27 00:45:09;;;;;;;29.00;20.33;;;;;;;;;;2082389;28;20195;-61
2021/12/27 00:46:09;;;;;;;29.63;20.73;;;;;;;;;;2074128;28;20210;-59
2021/12/27 00:47:09;;;;;;;29.00;20.57;;;;;;;;;;2074362;28;20189;-59
2021/12/27 00:48:10;;;;;;;30.17;21.20;;;;;;;;;;2073909;28;20649;-59
2021/12/27 00:49:10;;;;;;;28.13;19.83;;;;;;;;;;2074570;28;20196;-62
2021/12/27 00:50:11;;;;;;;28.90;20.27;;;;;;;;;;2075310;28;20188;-58
2021/12/27 00:51:11;;;;;;;27.23;20.23;;;;;;;;;;2074100;28;20212;-59
2021/12/27 00:52:11;;;;;;;24.70;19.83;;;;;;;;;;2073789;28;20243;-52
2021/12/27 00:53:12;;;;;;;26.93;21.20;;;;;;;;;;2074408;28;20538;-56
2021/12/27 00:54:12;;;;;;;26.13;19.93;;;;;;;;;;2074364;28;20668;-59
2021/12/27 00:55:13;;;;;;;29.83;21.00;;;;;;;;;;2074263;28;20184;-60
2021/12/27 00:56:13;;;;;;;26.60;19.23;;;;;;;;;;2072384;28;20189;-59
2021/12/27 00:57:13;;;;;;;25.80;18.80;;;;;;;;;;2073563;28;20183;-61
2021/12/27 00:58:14;;;;;;;26.67;19.53;;;;;;;;;;2073705;28;20173;-61
2021/12/27 00:59:14;;;;;;;25.27;19.07;;;;;;;;;;2075649;28;20203;-60
2021/12/27 01:00:16;;;;;;;27.60;20.03;;;;;;;;;;2080850;28;20169;-57
2021/12/27 01:01:16;;;;;;;26.97;19.37;;;;;;;;;;2073117;28;20184;-63
2021/12/27 01:02:16;;;;;;;25.40;19.53;;;;;;;;;;2074188;28;20656;-61
2021/12/27 01:03:16;;;;;;;28.17;20.10;;;;;;;;;;2073446;28;20184;-61
2021/12/27 01:04:17;;;;;;;27.07;20.13;;;;;;;;;;2072996;28;20165;-61
2021/12/27 01:05:17;;;;;;;27.70;20.33;;;;;;;;;;2074263;28;20514;-59
2021/12/27 01:06:17;;;;;;;26.20;18.93;;;;;;;;;;2074443;28;20269;-61
2021/12/27 01:07:18;;;;;;;30.17;21.77;;;;;;;;;;2074286;28;20165;-60
2021/12/27 01:08:18;;;;;;;28.60;21.07;;;;;;;;;;2074293;28;20173;-58
2021/12/27 01:09:33;;;;;;;29.43;20.37;;;;;;;;;;2074151;28;20661;-59
2021/12/27 01:13:25;;;;;;;29.43;20.47;;;;;;;;;;2074590;28;20171;-58
2021/12/27 01:14:43;;;;;;;29.27;20.33;;;;;;;;;;2073521;28;20404;-62
2021/12/27 01:15:49;;;;;;;26.73;18.93;;;;;;;;;;2067811;28;20493;-59
2021/12/27 01:16:50;;;;;;;30.37;21.73;;;;;;;;;;2064840;28;20396;-60
2021/12/27 01:17:50;;;;;;;27.33;19.40;;;;;;;;;;2073312;28;20433;-61
2021/12/27 01:18:51;;;;;;;27.53;21.30;;;;;;;;;;2073525;28;20184;-59
2021/12/27 01:19:51;;;;;;;26.23;20.83;;;;;;;;;;2064710;28;20276;-59
2021/12/27 01:20:51;;;;;;;29.83;20.47;;;;;;;;;;2064345;28;20162;-61
2021/12/27 01:21:51;;;;;;;31.63;21.97;;;;;;;;;;2104828;22;20691;-60
2021/12/27 01:22:52;;;;;;;34.43;21.33;;;;;;;;;;2083365;28;20226;-59
2021/12/27 01:23:53;;;;;;;30.83;20.87;;;;;;;;;;2082258;28;20194;-59
2021/12/27 01:24:53;;;;;;;28.87;20.83;;;;;;;;;;2084136;28;20660;-59
2021/12/27 01:25:54;;;;;;;29.97;20.53;;;;;;;;;;2083899;28;20393;-60
2021/12/27 01:26:54;;;;;;;27.90;20.67;;;;;;;;;;2082013;28;20187;-59
2021/12/27 01:27:54;;;;;;;28.50;20.63;;;;;;;;;;2080859;28;20180;-60
2021/12/27 01:28:56;;;;;;;27.83;20.63;;;;;;;;;;2082342;28;20188;-62
2021/12/27 01:29:57;;;;;;;28.87;20.10;;;;;;;;;;2078277;28;20212;-59
2021/12/27 01:30:57;;;;;;;27.60;19.20;;;;;;;;;;2075159;28;20433;-57
2021/12/27 01:31:58;;;;;;;27.43;20.43;;;;;;;;;;2079637;28;20204;-59
2021/12/27 01:33:01;;;;;;;29.10;20.80;;;;;;;;;;2081889;28;20184;-59
2021/12/27 01:34:01;;;;;;;27.87;20.87;;;;;;;;;;2079525;28;20185;-56
2021/12/27 01:35:01;;;;;;;34.73;21.07;;;;;;;;;;2083465;28;20441;-58
2021/12/27 01:36:03;;;;;;;29.77;21.37;;;;;;;;;;2079650;28;20180;-59
2021/12/27 01:37:05;;;;;;;28.57;20.97;;;;;;;;;;2074311;28;20215;-59
2021/12/27 01:38:05;;;;;;;28.73;20.50;;;;;;;;;;2075946;28;20427;-57
2021/12/27 01:39:06;;;;;;;31.43;22.73;;;;;;;;;;2075332;28;20414;-58
2021/12/27 01:40:07;;;;;;;30.33;20.63;;;;;;;;;;2075853;28;20172;-56
2021/12/27 01:41:08;;;;;;;30.60;20.97;;;;;;;;;;2083010;28;20613;-55
2021/12/27 01:42:09;;;;;;;30.73;20.87;;;;;;;;;;2075602;28;20457;-56
2021/12/27 01:43:11;;;;;;;31.97;22.03;;;;;;;;;;2082250;28;20405;-57
2021/12/27 01:44:13;;;;;;;29.77;20.87;;;;;;;;;;2076195;28;20173;-60
2021/12/27 01:45:13;;;;;;;29.20;20.10;;;;;;;;;;2082795;28;20433;-58
2021/12/27 01:46:18;;;;;;;26.97;20.73;;;;;;;;;;2067506;28;20426;-60
2021/12/27 01:47:19;;;;;;;28.97;20.70;;;;;;;;;;2067568;28;20224;-61
2021/12/27 01:48:23;;;;;;;28.73;21.33;;;;;;;;;;2082565;28;20433;-59
2021/12/27 01:49:23;;;;;;;27.70;20.67;;;;;;;;;;2081708;28;20183;-58
2021/12/27 01:50:24;;;;;;;30.70;21.13;;;;;;;;;;2065838;28;20399;-59
2021/12/27 01:51:25;;;;;;;30.07;21.10;;;;;;;;;;2065155;28;20169;-54
2021/12/27 01:52:26;;;;;;;31.40;21.57;;;;;;;;;;2079539;28;20188;-59
2021/12/27 01:53:27;;;;;;;29.83;20.67;;;;;;;;;;2080228;28;20161;-57
2021/12/27 01:54:27;;;;;;;33.60;21.53;;;;;;;;;;2076605;28;20192;-55
2021/12/27 01:55:28;;;;;;;29.87;20.23;;;;;;;;;;2081887;28;20504;-59
2021/12/27 01:56:28;;;;;;;29.23;21.27;;;;;;;;;;2082106;28;20175;-58
2021/12/27 01:57:28;;;;;;;31.23;22.47;;;;;;;;;;2081731;28;20207;-60
2021/12/27 01:58:29;;;;;;;29.83;22.10;;;;;;;;;;2082640;28;20172;-57
2021/12/27 01:59:29;;;;;;;31.50;22.27;;;;;;;;;;2081279;28;20259;-58
2021/12/27 02:00:29;;;;;;;29.03;21.53;;;;;;;;;;2081897;28;20183;-61
2021/12/27 02:01:30;;;;;;;34.33;25.53;;;;;;;;;;2076476;28;20196;-56
2021/12/27 02:02:30;;;;;;;31.37;24.37;;;;;;;;;;2083179;28;20167;-59
2021/12/27 02:03:31;;;;;;;39.30;26.73;;;;;;;;;;2084151;28;20188;-61
2021/12/27 02:04:31;;;;;;;33.93;22.93;;;;;;;;;;2079411;28;20222;-58
2021/12/27 02:05:32;;;;;;;30.27;20.83;;;;;;;;;;2073543;28;20232;-58
2021/12/27 02:06:32;;;;;;;32.63;23.30;;;;;;;;;;2073849;28;20185;-58
2021/12/27 02:07:32;;;;;;;33.53;23.43;;;;;;;;;;2082111;28;20637;-58
2021/12/27 02:08:34;;;;;;;35.20;23.03;;;;;;;;;;2082316;28;20204;-57
2021/12/27 02:09:46;;;;;;;30.37;21.90;;;;;;;;;;2079291;28;20183;-57
2021/12/27 02:10:49;;;;;;;34.60;25.13;;;;;;;;;;2080048;28;20424;-54
2021/12/27 02:11:50;;;;;;;33.10;22.10;;;;;;;;;;2078761;28;20413;-57
2021/12/27 02:12:50;;;;;;;31.47;22.37;;;;;;;;;;2079606;28;20509;-59
2021/12/27 02:13:51;;;;;;;31.77;22.53;;;;;;;;;;2079724;28;20768;-57
2021/12/27 02:14:51;;;;;;;32.80;22.70;;;;;;;;;;2082233;28;20183;-57
2021/12/27 02:15:51;;;;;;;35.47;22.40;;;;;;;;;;2081507;28;20268;-58
2021/12/27 02:16:52;;;;;;;36.43;23.60;;;;;;;;;;2081886;28;20160;-55
2021/12/27 02:17:52;;;;;;;35.50;23.13;;;;;;;;;;2081020;28;20179;-59
2021/12/27 02:18:52;;;;;;;31.50;23.00;;;;;;;;;;2081452;28;20885;-58
2021/12/27 02:19:53;;;;;;;30.23;21.50;;;;;;;;;;2073956;28;20670;-55
2021/12/27 02:20:53;;;;;;;33.27;23.10;;;;;;;;;;2081702;28;20241;-58
2021/12/27 02:21:56;;;;;;;33.77;23.17;;;;;;;;;;2081304;28;20206;-55
2021/12/27 02:23:01;;;;;;;30.90;22.03;;;;;;;;;;2071867;28;20177;-57
2021/12/27 02:24:03;;;;;;;31.83;21.73;;;;;;;;;;2080063;28;20745;-55
2021/12/27 02:25:05;;;;;;;33.13;21.67;;;;;;;;;;2081442;28;20781;-59
2021/12/27 02:26:05;;;;;;;29.53;21.03;;;;;;;;;;2072878;28;20415;-55
2021/12/27 02:27:06;;;;;;;32.53;23.23;;;;;;;;;;2069067;28;20427;-55
2021/12/27 02:28:07;;;;;;;31.47;22.17;;;;;;;;;;2081833;28;20176;-59
2021/12/27 02:29:09;;;;;;;30.80;22.40;;;;;;;;;;2081327;28;20421;-57
2021/12/27 02:30:10;;;;;;;30.57;22.80;;;;;;;;;;2080031;28;20518;-57
2021/12/27 02:31:11;;;;;;;36.27;23.63;;;;;;;;;;2072763;28;20181;-57
2021/12/27 02:32:11;;;;;;;33.63;23.33;;;;;;;;;;2076483;28;20709;-55
2021/12/27 02:33:12;;;;;;;33.07;23.10;;;;;;;;;;2082021;28;20326;-53
2021/12/27 02:34:12;;;;;;;29.77;22.97;;;;;;;;;;2081143;28;20715;-60
2021/12/27 02:35:14;;;;;;;31.87;21.03;;;;;;;;;;2081048;28;20255;-55
2021/12/27 02:36:14;;;;;;;30.37;22.43;;;;;;;;;;2078430;28;20224;-57
2021/12/27 02:37:14;;;;;;;33.53;23.00;;;;;;;;;;2081081;28;20429;-59
2021/12/27 02:38:17;;;;;;;30.50;22.23;;;;;;;;;;2077693;28;20175;-53
2021/12/27 02:39:17;;;;;;;32.03;22.60;;;;;;;;;;2081208;28;20176;-55
2021/12/27 02:40:18;;;;;;;33.93;23.00;;;;;;;;;;2081192;28;20554;-55
2021/12/27 02:41:18;;;;;;;32.13;22.47;;;;;;;;;;2082455;28;20168;-58
2021/12/27 02:42:19;;;;;;;30.50;21.57;;;;;;;;;;2080854;28;20176;-63
2021/12/27 02:43:20;;;;;;;32.73;22.23;;;;;;;;;;2079977;28;20164;-57
2021/12/27 02:44:21;;;;;;;27.90;20.63;;;;;;;;;;2074584;28;20238;-59
2021/12/27 02:45:21;;;;;;;31.97;22.20;;;;;;;;;;2074590;28;20169;-59
2021/12/27 02:46:22;;;;;;;29.73;21.67;;;;;;;;;;2073444;28;20633;-57
2021/12/27 02:47:22;;;;;;;31.73;21.90;;;;;;;;;;2081852;28;20210;-57
2021/12/27 02:48:26;;;;;;;34.80;23.77;;;;;;;;;;2072186;28;20247;-62
2021/12/27 02:49:27;;;;;;;34.30;23.33;;;;;;;;;;2072927;28;20754;-56
2021/12/27 02:50:27;;;;;;;30.17;21.17;;;;;;;;;;2080252;28;20193;-55
2021/12/27 02:51:28;;;;;;;30.63;22.50;;;;;;;;;;2080954;28;20200;-59
2021/12/27 02:52:28;;;;;;;31.27;21.50;;;;;;;;;;2081192;28;20198;-56
2021/12/27 02:53:28;;;;;;;33.73;22.13;;;;;;;;;;2084710;28;20181;-57
2021/12/27 02:54:28;;;;;;;31.50;22.23;;;;;;;;;;2081316;28;20184;-59
2021/12/27 02:55:29;;;;;;;30.87;21.83;;;;;;;;;;2080207;28;20180;-57
2021/12/27 02:56:30;;;;;;;34.07;21.03;;;;;;;;;;2081376;28;20215;-57
2021/12/27 02:57:31;;;;;;;31.67;20.90;;;;;;;;;;2081107;28;20603;-56
2021/12/27 02:58:31;;;;;;;31.43;22.03;;;;;;;;;;2080469;28;20507;-58
2021/12/27 02:59:31;;;;;;;33.43;22.83;;;;;;;;;;2080858;28;20195;-57
2021/12/27 03:00:33;;;;;;;31.00;22.17;;;;;;;;;;2074373;28;20177;-54
2021/12/27 03:01:34;;;;;;;30.03;21.47;;;;;;;;;;2067659;28;20227;-58
2021/12/27 03:02:36;;;;;;;30.20;21.97;;;;;;;;;;2068524;28;20192;-60
2021/12/27 03:03:36;;;;;;;31.33;21.97;;;;;;;;;;2072258;28;20561;-55
2021/12/27 03:04:37;;;;;;;33.87;23.20;;;;;;;;;;2071233;28;20430;-55
2021/12/27 03:05:38;;;;;;;32.60;22.63;;;;;;;;;;2072078;28;20824;-54
2021/12/27 03:06:38;;;;;;;30.50;22.20;;;;;;;;;;2077452;28;20218;-58
2021/12/27 03:07:40;;;;;;;30.23;21.57;;;;;;;;;;2080194;28;20234;-56
2021/12/27 03:08:40;;;;;;;33.37;22.47;;;;;;;;;;2077674;28;20238;-56
2021/12/27 03:09:41;;;;;;;32.33;21.87;;;;;;;;;;2080922;28;20428;-57
2021/12/27 03:10:43;;;;;;;30.93;22.57;;;;;;;;;;2081632;28;20168;-54
2021/12/27 03:11:43;;;;;;;32.93;22.93;;;;;;;;;;2078367;28;20549;-58
2021/12/27 03:12:45;;;;;;;33.60;22.77;;;;;;;;;;2077380;28;20644;-55
2021/12/27 03:13:47;;;;;;;31.80;21.87;;;;;;;;;;2078036;28;20235;-54
2021/12/27 03:14:47;;;;;;;33.10;22.73;;;;;;;;;;2078725;28;20179;-57
2021/12/27 03:15:51;;;;;;;32.90;22.17;;;;;;;;;;2078090;28;20422;-60
2021/12/27 03:16:52;;;;;;;29.93;22.20;;;;;;;;;;2079931;28;20259;-57
2021/12/27 03:17:53;;;;;;;33.57;24.23;;;;;;;;;;2075267;28;20968;-56
2021/12/27 03:18:54;;;;;;;32.07;23.17;;;;;;;;;;2073035;28;20208;-57
2021/12/27 03:19:54;;;;;;;30.53;21.57;;;;;;;;;;2081280;28;20188;-57
2021/12/27 03:20:55;;;;;;;32.23;22.17;;;;;;;;;;2078946;28;20178;-60
2021/12/27 03:21:55;;;;;;;30.67;22.40;;;;;;;;;;2074464;28;20196;-58
2021/12/27 03:22:55;;;;;;;34.93;22.77;;;;;;;;;;2080128;28;20917;-55
2021/12/27 03:23:56;;;;;;;33.03;21.73;;;;;;;;;;2080793;28;20201;-57
2021/12/27 03:24:56;;;;;;;31.80;22.30;;;;;;;;;;2078550;28;20189;-56
2021/12/27 03:25:56;;;;;;;30.83;21.63;;;;;;;;;;2073607;28;20215;-58
2021/12/27 03:26:56;;;;;;;29.13;21.93;;;;;;;;;;2081373;28;20171;-56
2021/12/27 03:27:57;;;;;;;34.83;23.53;;;;;;;;;;2080432;28;20183;-57
2021/12/27 03:28:57;;;;;;;31.93;21.47;;;;;;;;;;2081447;28;20210;-54
2021/12/27 03:29:57;;;;;;;31.90;21.73;;;;;;;;;;2080713;28;20179;-55
2021/12/27 03:30:58;;;;;;;33.47;23.37;;;;;;;;;;2072933;28;20664;-59
2021/12/27 03:31:58;;;;;;;32.10;22.27;;;;;;;;;;2079973;28;20215;-57
2021/12/27 03:32:58;;;;;;;34.53;23.37;;;;;;;;;;2080355;28;20175;-54
2021/12/27 03:33:59;;;;;;;30.47;22.13;;;;;;;;;;2080237;28;20184;-53
2021/12/27 03:35:08;;;;;;;35.67;22.37;;;;;;;;;;2080604;28;20172;-57
2021/12/27 03:36:09;;;;;;;30.43;21.63;;;;;;;;;;2080706;28;20172;-60
2021/12/27 03:37:09;;;;;;;34.70;22.77;;;;;;;;;;2076836;28;20173;-59
2021/12/27 03:38:11;;;;;;;32.17;21.93;;;;;;;;;;2081110;28;20882;-57
2021/12/27 03:39:11;;;;;;;32.73;22.03;;;;;;;;;;2076375;28;20173;-54
2021/12/27 03:40:12;;;;;;;33.43;22.30;;;;;;;;;;2081370;28;20716;-55
2021/12/27 03:41:17;;;;;;;32.40;22.27;;;;;;;;;;2074795;28;20596;-58
2021/12/27 03:42:17;;;;;;;34.13;23.63;;;;;;;;;;2073524;28;20181;-55
2021/12/27 03:43:18;;;;;;;36.83;23.50;;;;;;;;;;2075121;28;20517;-54
2021/12/27 03:44:18;;;;;;;35.20;23.27;;;;;;;;;;2072442;28;20630;-56
2021/12/27 03:45:24;;;;;;;33.57;22.97;;;;;;;;;;2074457;28;20185;-57
2021/12/27 03:46:24;;;;;;;33.10;22.50;;;;;;;;;;2080780;28;20545;-56
2021/12/27 03:47:25;;;;;;;37.23;22.57;;;;;;;;;;2075296;28;20410;-58
2021/12/27 03:48:25;;;;;;;33.17;23.53;;;;;;;;;;2080593;28;20164;-56
2021/12/27 03:49:25;;;;;;;33.87;23.07;;;;;;;;;;2079938;28;20200;-58
2021/12/27 03:50:26;;;;;;;33.23;21.50;;;;;;;;;;2080964;28;20672;-55
2021/12/27 03:51:26;;;;;;;35.27;23.30;;;;;;;;;;2074647;28;20291;-57
2021/12/27 03:52:26;;;;;;;34.33;22.97;;;;;;;;;;2077553;28;20175;-57
2021/12/27 03:53:29;;;;;;;34.13;23.53;;;;;;;;;;2081093;28;20180;-55
2021/12/27 03:54:29;;;;;;;34.03;22.80;;;;;;;;;;2080560;28;20168;-58
2021/12/27 03:55:29;;;;;;;36.30;23.00;;;;;;;;;;2081390;28;20180;-55
2021/12/27 03:56:30;;;;;;;31.33;23.17;;;;;;;;;;2081388;28;20222;-57
2021/12/27 03:57:32;;;;;;;34.67;23.10;;;;;;;;;;2072623;28;20184;-57
2021/12/27 03:58:45;;;;;;;31.80;22.97;;;;;;;;;;2072685;28;20535;-55
2021/12/27 04:01:29;;;;;;;33.73;22.13;;;;;;;;;;2081023;28;20618;-57
2021/12/27 04:02:09;;;;;;;35.30;22.70;;;;;;;;;;2070122;28;20287;-56
2021/12/27 04:03:09;;;;;;;34.17;22.43;;;;;;;;;;2081687;28;20160;-53
2021/12/27 04:04:09;;;;;;;32.60;22.20;;;;;;;;;;2072401;28;20184;-58
2021/12/27 04:05:10;;;;;;;36.33;23.33;;;;;;;;;;2072759;28;20255;-60
2021/12/27 04:06:11;;;;;;;35.43;23.70;;;;;;;;;;2081196;28;20206;-57
2021/12/27 04:07:11;;;;;;;34.77;23.70;;;;;;;;;;2081414;28;20180;-56
2021/12/27 04:08:11;;;;;;;31.90;22.43;;;;;;;;;;2081370;28;20196;-58
2021/12/27 04:09:12;;;;;;;32.80;23.27;;;;;;;;;;2081389;28;20597;-57
2021/12/27 04:10:12;;;;;;;34.20;23.90;;;;;;;;;;2081235;28;20179;-57
2021/12/27 04:11:12;;;;;;;38.00;25.03;;;;;;;;;;2072597;28;20673;-54
2021/12/27 04:12:13;;;;;;;33.33;23.70;;;;;;;;;;2072126;28;20279;-56
2021/12/27 04:13:13;;;;;;;30.90;22.37;;;;;;;;;;2081259;28;20177;-53
2021/12/27 04:14:14;;;;;;;33.13;23.87;;;;;;;;;;2078306;28;20259;-55
2021/12/27 04:15:14;;;;;;;37.03;24.23;;;;;;;;;;2080464;28;20165;-59
2021/12/27 04:16:14;;;;;;;37.50;25.47;;;;;;;;;;2079576;28;20173;-58
2021/12/27 04:17:14;;;;;;;37.80;24.27;;;;;;;;;;2080524;28;20157;-56
2021/12/27 04:18:16;;;;;;;35.93;23.70;;;;;;;;;;2079204;28;20256;-56
2021/12/27 04:19:16;;;;;;;37.37;24.57;;;;;;;;;;2080407;28;20176;-59
2021/12/27 04:20:17;;;;;;;38.10;24.77;;;;;;;;;;2078874;28;20699;-58
2021/12/27 04:21:17;;;;;;;33.77;23.33;;;;;;;;;;2080405;28;20165;-56
2021/12/27 04:22:17;;;;;;;37.73;25.37;;;;;;;;;;2078344;28;20177;-59
2021/12/27 04:23:18;;;;;;;37.83;24.67;;;;;;;;;;2080428;28;20229;-55
2021/12/27 04:24:18;;;;;;;34.73;24.30;;;;;;;;;;2080507;28;20180;-57
2021/12/27 04:25:19;;;;;;;36.77;24.57;;;;;;;;;;2072938;28;20228;-56
2021/12/27 04:26:20;;;;;;;34.17;23.80;;;;;;;;;;2077079;28;20259;-58
2021/12/27 04:27:20;;;;;;;38.63;24.87;;;;;;;;;;2080333;28;20169;-58
2021/12/27 04:28:20;;;;;;;35.10;24.23;;;;;;;;;;2078339;28;20196;-58
2021/12/27 04:29:21;;;;;;;35.53;25.30;;;;;;;;;;2081161;28;20235;-57
2021/12/27 04:30:21;;;;;;;38.53;25.50;;;;;;;;;;2078562;28;20170;-57
2021/12/27 04:31:21;;;;;;;34.70;24.30;;;;;;;;;;2074010;28;20177;-59
2021/12/27 04:32:22;;;;;;;38.60;26.80;;;;;;;;;;2073265;28;20240;-55
2021/12/27 04:33:22;;;;;;;38.40;24.80;;;;;;;;;;2075129;28;20165;-57
2021/12/27 04:34:22;;;;;;;35.60;25.33;;;;;;;;;;2072786;28;20178;-57
2021/12/27 04:35:23;;;;;;;33.90;24.47;;;;;;;;;;2081399;28;20254;-57
2021/12/27 04:36:23;;;;;;;37.47;26.03;;;;;;;;;;2074706;28;20248;-54
2021/12/27 04:37:23;;;;;;;35.60;24.17;;;;;;;;;;2081798;28;20184;-60
2021/12/27 04:38:24;;;;;;;34.83;24.07;;;;;;;;;;2081619;28;20169;-57
2021/12/27 04:39:24;;;;;;;35.70;25.43;;;;;;;;;;2075343;28;20630;-56
2021/12/27 04:40:25;;;;;;;37.37;25.63;;;;;;;;;;2073949;28;20180;-58
2021/12/27 04:41:26;;;;;;;32.87;24.83;;;;;;;;;;2082081;28;20279;-61
2021/12/27 04:42:28;;;;;;;34.00;23.60;;;;;;;;;;2081029;28;20175;-58
2021/12/27 04:43:28;;;;;;;36.80;23.80;;;;;;;;;;2079896;28;20184;-56
2021/12/27 04:44:28;;;;;;;34.10;24.20;;;;;;;;;;2076371;28;20661;-57
2021/12/27 04:45:29;;;;;;;35.90;24.87;;;;;;;;;;2081706;28;20196;-56
2021/12/27 04:46:29;;;;;;;38.10;24.47;;;;;;;;;;2073132;28;20180;-57
2021/12/27 04:47:29;;;;;;;33.03;24.67;;;;;;;;;;2072416;28;20216;-57
2021/12/27 04:48:30;;;;;;;37.97;25.20;;;;;;;;;;2081667;28;20191;-56
2021/12/27 04:49:30;;;;;;;36.90;25.40;;;;;;;;;;2076079;28;20168;-55
2021/12/27 04:50:30;;;;;;;36.27;26.10;;;;;;;;;;2081117;28;20239;-57
2021/12/27 04:51:31;;;;;;;37.43;26.87;;;;;;;;;;2081459;28;20172;-58
2021/12/27 04:52:31;;;;;;;38.97;25.43;;;;;;;;;;2076931;28;20582;-57
2021/12/27 04:53:31;;;;;;;39.17;25.77;;;;;;;;;;2082403;28;20684;-56
2021/12/27 04:54:31;;;;;;;39.73;25.33;;;;;;;;;;2081729;28;20305;-57
2021/12/27 04:55:34;;;;;;;34.43;23.43;;;;;;;;;;2082156;28;20194;-56
2021/12/27 04:56:34;;;;;;;34.27;24.53;;;;;;;;;;2081908;28;20172;-54
2021/12/27 04:57:34;;;;;;;39.23;27.47;;;;;;;;;;2082697;28;20174;-54
2021/12/27 04:58:35;;;;;;;40.43;26.03;;;;;;;;;;2082433;28;20187;-58
2021/12/27 04:59:35;;;;;;;36.33;25.20;;;;;;;;;;2082443;28;20168;-55
2021/12/27 05:00:37;;;;;;;38.83;25.73;;;;;;;;;;2082116;28;20215;-56
2021/12/27 05:01:38;;;;;;;41.67;27.03;;;;;;;;;;2082320;28;20196;-59
2021/12/27 05:02:38;;;;;;;41.43;25.73;;;;;;;;;;2082591;28;20246;-58
2021/12/27 05:03:38;;;;;;;38.83;24.67;;;;;;;;;;2082385;28;20690;-55
2021/12/27 05:04:39;;;;;;;40.47;26.97;;;;;;;;;;2073736;28;20177;-55
2021/12/27 05:05:43;;;;;;;36.33;25.90;;;;;;;;;;2073811;28;20177;-57
2021/12/27 05:06:44;;;;;;;41.60;28.30;;;;;;;;;;2082450;28;20187;-55
2021/12/27 05:07:47;;;;;;;39.80;26.50;;;;;;;;;;2082642;28;20176;-54
2021/12/27 05:08:49;;;;;;;41.50;26.13;;;;;;;;;;2082298;28;20234;-56
2021/12/27 05:09:50;;;;;;;37.70;25.50;;;;;;;;;;2065762;28;20993;-58
2021/12/27 05:10:50;;;;;;;37.07;25.27;;;;;;;;;;2065366;28;20178;-57
2021/12/27 05:11:50;;;;;;;40.53;26.77;;;;;;;;;;2073444;28;20231;-56
2021/12/27 05:12:50;;;;;;;39.03;25.73;;;;;;;;;;2082246;28;20263;-56
2021/12/27 05:13:50;;;;;;;37.23;26.10;;;;;;;;;;2082746;28;20228;-56
2021/12/27 05:14:51;;;;;;;39.10;26.13;;;;;;;;;;2082479;28;20199;-55
2021/12/27 05:15:51;;;;;;;41.33;25.30;;;;;;;;;;2082518;28;20161;-57
2021/12/27 05:16:51;;;;;;;41.77;25.50;;;;;;;;;;2082811;28;20291;-57
2021/12/27 05:17:52;;;;;;;41.97;26.53;;;;;;;;;;2073751;28;20199;-57
2021/12/27 05:18:52;;;;;;;39.80;27.13;;;;;;;;;;2073624;28;20181;-58
2021/12/27 05:19:52;;;;;;;41.50;27.10;;;;;;;;;;2082434;28;20179;-58
2021/12/27 05:20:53;;;;;;;41.00;26.67;;;;;;;;;;2082369;28;20238;-58
2021/12/27 05:21:53;;;;;;;44.13;26.70;;;;;;;;;;2073340;28;20285;-54
2021/12/27 05:22:53;;;;;;;39.63;26.73;;;;;;;;;;2065438;28;20217;-53
2021/12/27 05:23:54;;;;;;;40.40;25.07;;;;;;;;;;2073622;28;20177;-54
2021/12/27 05:24:54;;;;;;;42.27;28.10;;;;;;;;;;2082487;28;20222;-58
2021/12/27 05:25:54;;;;;;;40.90;26.83;;;;;;;;;;2073935;28;20212;-53
2021/12/27 05:26:54;;;;;;;39.67;26.93;;;;;;;;;;2073640;28;20164;-58
2021/12/27 05:27:55;;;;;;;40.87;26.13;;;;;;;;;;2082395;28;20172;-57
2021/12/27 05:28:55;;;;;;;43.73;27.60;;;;;;;;;;2082388;28;20207;-57
2021/12/27 05:29:55;;;;;;;41.27;26.27;;;;;;;;;;2082431;28;20604;-57
2021/12/27 05:30:56;;;;;;;42.80;27.70;;;;;;;;;;2073689;28;20223;-54
2021/12/27 05:32:01;;;;;;;38.87;26.67;;;;;;;;;;2073276;28;20205;-54
2021/12/27 05:33:02;;;;;;;41.33;26.43;;;;;;;;;;2073664;28;20696;-58
2021/12/27 05:34:02;;;;;;;40.70;27.13;;;;;;;;;;2073605;28;20205;-56
2021/12/27 05:35:03;;;;;;;42.03;25.97;;;;;;;;;;2082672;28;20175;-57
2021/12/27 05:36:03;;;;;;;44.70;29.03;;;;;;;;;;2082678;28;20689;-58
2021/12/27 05:37:04;;;;;;;40.37;26.63;;;;;;;;;;2082399;28;20417;-56
2021/12/27 05:38:04;;;;;;;41.47;27.53;;;;;;;;;;2082265;28;20172;-57
2021/12/27 05:39:04;;;;;;;42.70;27.87;;;;;;;;;;2082566;28;20180;-58
2021/12/27 05:40:08;;;;;;;39.97;27.00;;;;;;;;;;2083342;28;20179;-59
2021/12/27 05:41:08;;;;;;;36.50;26.10;;;;;;;;;;2083317;28;20172;-59
2021/12/27 05:42:09;;;;;;;40.57;26.90;;;;;;;;;;2082164;28;20425;-58
2021/12/27 05:43:09;;;;;;;42.53;28.13;;;;;;;;;;2074780;28;20184;-59
2021/12/27 05:44:10;;;;;;;41.67;27.07;;;;;;;;;;2074182;28;20219;-53
2021/12/27 05:45:10;;;;;;;43.33;28.00;;;;;;;;;;2082334;28;20210;-56
2021/12/27 05:46:10;;;;;;;43.80;27.73;;;;;;;;;;2082099;28;20254;-54
2021/12/27 05:47:10;;;;;;;41.60;27.77;;;;;;;;;;2081369;28;20226;-55
2021/12/27 05:48:11;;;;;;;43.20;28.00;;;;;;;;;;2074399;28;20188;-55
2021/12/27 05:49:11;;;;;;;44.37;26.73;;;;;;;;;;2081024;28;20199;-56
2021/12/27 05:50:12;;;;;;;41.90;26.77;;;;;;;;;;2076611;28;20177;-53
2021/12/27 05:51:12;;;;;;;39.70;26.90;;;;;;;;;;2081660;28;20256;-57
2021/12/27 05:52:13;;;;;;;41.77;28.13;;;;;;;;;;2073967;28;20196;-55
2021/12/27 05:53:13;;;;;;;41.10;27.67;;;;;;;;;;2073295;28;20173;-57
2021/12/27 05:54:13;;;;;;;41.47;27.83;;;;;;;;;;2081664;28;20180;-55
2021/12/27 05:55:14;;;;;;;47.67;28.67;;;;;;;;;;2082017;28;20172;-56
2021/12/27 05:56:14;;;;;;;43.90;27.43;;;;;;;;;;2081560;28;20183;-58
2021/12/27 05:57:14;;;;;;;43.93;27.83;;;;;;;;;;2082072;28;20195;-59
2021/12/27 05:58:15;;;;;;;47.10;29.00;;;;;;;;;;2075526;28;20215;-57